createdAt,value
2018-05-17T00:00:23.371Z,0
2018-05-17T00:01:33.139Z,0
2018-05-17T00:02:43.021Z,0
2018-05-17T00:03:53.144Z,0
2018-05-17T00:05:03.320Z,0
2018-05-17T00:06:13.498Z,0
2018-05-17T00:07:23.275Z,0
2018-05-17T00:08:33.420Z,0
2018-05-17T00:09:43.604Z,0
2018-05-17T00:10:53.835Z,0
2018-05-17T00:12:03.983Z,0
2018-05-17T00:13:14.202Z,0
2018-05-17T00:14:24.414Z,0
2018-05-17T00:15:34.605Z,0
2018-05-17T00:16:44.746Z,0
2018-05-17T00:17:54.922Z,0
2018-05-17T00:19:05.062Z,0
2018-05-17T00:20:14.930Z,0
2018-05-17T00:21:25.067Z,0
2018-05-17T00:22:35.195Z,0
2018-05-17T00:23:45.417Z,0
2018-05-17T00:24:55.299Z,0
2018-05-17T00:26:05.431Z,0
2018-05-17T00:27:15.601Z,0
2018-05-17T00:28:25.742Z,0
2018-05-17T00:29:35.687Z,0
2018-05-17T00:30:45.654Z,0
2018-05-17T00:31:55.856Z,0
2018-05-17T00:33:05.844Z,0
2018-05-17T00:34:16.025Z,0
2018-05-17T00:35:26.155Z,0
2018-05-17T00:36:36.293Z,0
2018-05-17T00:37:46.469Z,0
2018-05-17T00:38:56.837Z,0
2018-05-17T00:40:07.017Z,0
2018-05-17T00:41:17.193Z,0
2018-05-17T00:42:27.319Z,0
2018-05-17T00:43:37.513Z,0
2018-05-17T00:44:47.394Z,0
2018-05-17T00:45:57.622Z,0
2018-05-17T00:47:07.751Z,0
2018-05-17T00:48:17.923Z,0
2018-05-17T00:49:28.101Z,0
2018-05-17T00:50:38.027Z,0
2018-05-17T00:51:48.246Z,0
2018-05-17T00:52:58.381Z,0
2018-05-17T00:54:08.656Z,0
2018-05-17T00:55:18.858Z,0
2018-05-17T00:56:29.154Z,0
2018-05-17T00:57:39.032Z,0
2018-05-17T00:58:49.186Z,0
2018-05-17T00:59:59.317Z,0
2018-05-17T01:01:09.479Z,0
2018-05-17T01:02:19.716Z,0
2018-05-17T01:03:29.895Z,0
2018-05-17T01:04:40.060Z,0
2018-05-17T01:05:50.268Z,0
2018-05-17T01:07:00.456Z,0
2018-05-17T01:08:10.658Z,0
2018-05-17T01:09:20.565Z,0
2018-05-17T01:10:30.819Z,0
2018-05-17T01:11:41.099Z,0
2018-05-17T01:12:51.280Z,0
2018-05-17T01:14:01.432Z,0
2018-05-17T01:15:11.580Z,0
2018-05-17T01:16:21.402Z,0
2018-05-17T01:17:31.613Z,0
2018-05-17T01:18:41.790Z,0
2018-05-17T01:19:51.961Z,0
2018-05-17T01:21:02.091Z,0
2018-05-17T01:22:12.242Z,0
2018-05-17T01:23:22.384Z,0
2018-05-17T01:24:32.549Z,0
2018-05-17T01:25:42.695Z,0
2018-05-17T01:26:52.905Z,0
2018-05-17T01:28:03.143Z,0
2018-05-17T01:29:13.434Z,0
2018-05-17T01:30:23.573Z,0
2018-05-17T01:31:33.128Z,0
2018-05-17T01:32:43.243Z,0
2018-05-17T01:33:53.394Z,0
2018-05-17T01:35:04.035Z,0
2018-05-17T01:36:14.219Z,0
2018-05-17T01:37:24.133Z,0
2018-05-17T01:38:34.323Z,0
2018-05-17T01:39:44.452Z,0
2018-05-17T01:40:54.593Z,0
2018-05-17T01:42:04.990Z,0
2018-05-17T01:43:15.138Z,0
2018-05-17T01:44:25.306Z,0
2018-05-17T01:45:35.195Z,0
2018-05-17T01:46:45.357Z,0
2018-05-17T01:47:55.506Z,0
2018-05-17T01:49:05.405Z,0
2018-05-17T01:50:15.598Z,0
2018-05-17T01:51:25.736Z,0
2018-05-17T01:52:35.881Z,0
2018-05-17T01:53:46.051Z,0
2018-05-17T01:54:56.207Z,0
2018-05-17T01:56:06.399Z,0
2018-05-17T01:57:16.561Z,0
2018-05-17T01:58:26.574Z,0
2018-05-17T01:59:36.721Z,0
2018-05-17T02:00:46.498Z,0
2018-05-17T02:01:56.617Z,0
2018-05-17T02:03:06.509Z,0
2018-05-17T02:04:16.634Z,0
2018-05-17T02:05:26.795Z,0
2018-05-17T02:06:36.655Z,0
2018-05-17T02:07:46.793Z,0
2018-05-17T02:08:56.732Z,0
2018-05-17T02:10:06.607Z,0
2018-05-17T02:11:16.547Z,0
2018-05-17T02:12:26.671Z,0
2018-05-17T02:13:36.858Z,0
2018-05-17T02:14:47.296Z,0
2018-05-17T02:15:56.690Z,0
2018-05-17T02:17:06.963Z,0
2018-05-17T02:18:17.084Z,0
2018-05-17T02:19:27.254Z,0
2018-05-17T02:20:38.363Z,0
2018-05-17T02:21:48.515Z,0
2018-05-17T02:22:58.304Z,0
2018-05-17T02:24:08.420Z,0
2018-05-17T02:25:18.277Z,0
2018-05-17T02:26:28.431Z,0
2018-05-17T02:27:38.606Z,0
2018-05-17T02:28:49.782Z,0
2018-05-17T02:29:59.704Z,0
2018-05-17T02:31:09.839Z,0
2018-05-17T02:32:19.992Z,0
2018-05-17T02:33:30.200Z,0
2018-05-17T02:34:40.403Z,0
2018-05-17T02:35:50.564Z,0
2018-05-17T02:37:00.748Z,0
2018-05-17T02:38:10.989Z,0
2018-05-17T02:39:21.142Z,0
2018-05-17T02:40:31.281Z,0
2018-05-17T02:41:41.422Z,0
2018-05-17T02:42:51.570Z,0
2018-05-17T02:44:01.710Z,0
2018-05-17T02:45:11.920Z,0
2018-05-17T02:46:21.800Z,0
2018-05-17T02:47:31.681Z,0
2018-05-17T02:48:41.869Z,0
2018-05-17T02:49:51.988Z,0
2018-05-17T02:51:02.119Z,0
2018-05-17T02:52:12.289Z,0
2018-05-17T02:53:22.420Z,0
2018-05-17T02:54:32.611Z,0
2018-05-17T02:55:42.769Z,0
2018-05-17T02:56:52.887Z,0
2018-05-17T02:58:03.061Z,0
2018-05-17T02:59:13.243Z,0
2018-05-17T03:00:23.374Z,0
2018-05-17T03:01:33.545Z,0
2018-05-17T03:02:43.719Z,0
2018-05-17T03:03:54.873Z,0
2018-05-17T03:05:06.013Z,0
2018-05-17T03:06:16.012Z,0
2018-05-17T03:07:26.180Z,0
2018-05-17T03:08:36.342Z,0
2018-05-17T03:09:46.529Z,0
2018-05-17T03:10:56.687Z,0
2018-05-17T03:12:06.862Z,0
2018-05-17T03:13:16.991Z,0
2018-05-17T03:14:26.863Z,5
2018-05-17T03:15:37.011Z,5
2018-05-17T03:16:47.170Z,5
2018-05-17T03:17:57.142Z,5
2018-05-17T03:19:07.208Z,5
2018-05-17T03:20:17.339Z,5
2018-05-17T03:21:27.502Z,10
2018-05-17T03:22:37.662Z,10
2018-05-17T03:23:47.860Z,10
2018-05-17T03:24:58.029Z,10
2018-05-17T03:26:07.909Z,10
2018-05-17T03:27:18.053Z,10
2018-05-17T03:28:28.192Z,15
2018-05-17T03:29:38.328Z,15
2018-05-17T03:30:48.486Z,15
2018-05-17T03:31:58.714Z,15
2018-05-17T03:33:08.833Z,20
2018-05-17T03:34:18.959Z,20
2018-05-17T03:35:29.079Z,20
2018-05-17T03:36:39.211Z,20
2018-05-17T03:37:49.109Z,25
2018-05-17T03:38:59.250Z,25
2018-05-17T03:40:09.565Z,25
2018-05-17T03:41:19.442Z,30
2018-05-17T03:42:29.559Z,30
2018-05-17T03:43:39.678Z,30
2018-05-17T03:44:49.541Z,30
2018-05-17T03:45:59.694Z,35
2018-05-17T03:47:09.857Z,35
2018-05-17T03:48:20.012Z,35
2018-05-17T03:49:29.525Z,35
2018-05-17T03:50:39.667Z,35
2018-05-17T03:51:49.795Z,40
2018-05-17T03:52:59.960Z,40
2018-05-17T03:54:10.114Z,40
2018-05-17T03:55:19.802Z,45
2018-05-17T03:56:29.924Z,45
2018-05-17T03:57:40.078Z,45
2018-05-17T03:58:50.070Z,45
2018-05-17T04:00:00.418Z,45
2018-05-17T04:01:10.590Z,50
2018-05-17T04:02:20.471Z,50
2018-05-17T04:03:30.604Z,50
2018-05-17T04:04:40.730Z,50
2018-05-17T04:05:50.903Z,50
2018-05-17T04:07:01.113Z,50
2018-05-17T04:08:11.333Z,55
2018-05-17T04:09:21.296Z,55
2018-05-17T04:10:31.173Z,55
2018-05-17T04:11:41.559Z,55
2018-05-17T04:12:51.498Z,55
2018-05-17T04:14:02.165Z,55
2018-05-17T04:15:12.382Z,55
2018-05-17T04:16:22.548Z,55
2018-05-17T04:17:32.681Z,60
2018-05-17T04:18:42.577Z,60
2018-05-17T04:19:52.731Z,60
2018-05-17T04:21:02.793Z,60
2018-05-17T04:22:12.937Z,60
2018-05-17T04:23:23.186Z,60
2018-05-17T04:24:33.373Z,60
2018-05-17T04:25:43.752Z,60
2018-05-17T04:26:53.890Z,60
2018-05-17T04:28:04.148Z,60
2018-05-17T04:29:14.037Z,60
2018-05-17T04:30:24.195Z,60
2018-05-17T04:31:34.340Z,55
2018-05-17T04:32:44.255Z,55
2018-05-17T04:33:54.388Z,55
2018-05-17T04:35:04.537Z,60
2018-05-17T04:36:14.700Z,60
2018-05-17T04:37:24.846Z,60
2018-05-17T04:38:35.088Z,60
2018-05-17T04:39:45.015Z,60
2018-05-17T04:40:55.135Z,60
2018-05-17T04:42:05.312Z,65
2018-05-17T04:43:15.714Z,65
2018-05-17T04:44:25.930Z,65
2018-05-17T04:45:36.085Z,65
2018-05-17T04:46:45.792Z,70
2018-05-17T04:47:56.076Z,70
2018-05-17T04:49:06.229Z,70
2018-05-17T04:50:15.919Z,70
2018-05-17T04:51:26.202Z,70
2018-05-17T04:52:36.365Z,75
2018-05-17T04:53:46.585Z,75
2018-05-17T04:54:57.039Z,75
2018-05-17T04:56:07.223Z,75
2018-05-17T04:57:17.353Z,70
2018-05-17T04:58:27.568Z,75
2018-05-17T04:59:37.727Z,75
2018-05-17T05:00:48.003Z,70
2018-05-17T05:01:58.190Z,75
2018-05-17T05:03:08.736Z,85
2018-05-17T05:04:18.980Z,85
2018-05-17T05:05:28.796Z,85
2018-05-17T05:06:38.661Z,90
2018-05-17T05:07:48.816Z,90
2018-05-17T05:08:58.631Z,95
2018-05-17T05:10:08.784Z,95
2018-05-17T05:11:18.925Z,95
2018-05-17T05:12:29.169Z,100
2018-05-17T05:13:39.404Z,100
2018-05-17T05:14:49.717Z,100
2018-05-17T05:15:59.923Z,105
2018-05-17T05:17:10.110Z,110
2018-05-17T05:18:20.325Z,100
2018-05-17T05:19:30.461Z,100
2018-05-17T05:20:40.700Z,105
2018-05-17T05:21:50.867Z,115
2018-05-17T05:23:01.090Z,120
2018-05-17T05:24:11.408Z,120
2018-05-17T05:25:22.110Z,110
2018-05-17T05:26:32.352Z,115
2018-05-17T05:27:42.519Z,115
2018-05-17T05:28:52.746Z,110
2018-05-17T05:30:02.961Z,110
2018-05-17T05:31:13.139Z,115
2018-05-17T05:32:23.327Z,115
2018-05-17T05:33:33.235Z,120
2018-05-17T05:34:43.418Z,110
2018-05-17T05:35:53.685Z,115
2018-05-17T05:37:03.504Z,110
2018-05-17T05:38:13.625Z,115
2018-05-17T05:39:23.757Z,120
2018-05-17T05:40:33.579Z,125
2018-05-17T05:41:43.514Z,130
2018-05-17T05:42:53.645Z,135
2018-05-17T05:44:03.801Z,140
2018-05-17T05:45:13.972Z,130
2018-05-17T05:46:24.148Z,135
2018-05-17T05:47:34.394Z,130
2018-05-17T05:48:44.617Z,115
2018-05-17T05:49:54.752Z,135
2018-05-17T05:51:05.023Z,140
2018-05-17T05:52:16.253Z,135
2018-05-17T05:53:26.562Z,140
2018-05-17T05:54:36.713Z,150
2018-05-17T05:55:46.607Z,150
2018-05-17T05:56:57.933Z,150
2018-05-17T05:58:08.046Z,135
2018-05-17T05:59:18.207Z,145
2018-05-17T06:00:28.384Z,150
2018-05-17T06:01:38.629Z,150
2018-05-17T06:02:48.785Z,155
2018-05-17T06:03:58.673Z,155
2018-05-17T06:05:08.463Z,170
2018-05-17T06:06:18.457Z,175
2018-05-17T06:07:28.649Z,175
2018-05-17T06:08:38.590Z,175
2018-05-17T06:09:48.728Z,185
2018-05-17T06:10:58.878Z,210
2018-05-17T06:12:09.008Z,210
2018-05-17T06:13:19.210Z,210
2018-05-17T06:14:29.207Z,210
2018-05-17T06:15:39.332Z,210
2018-05-17T06:16:49.452Z,190
2018-05-17T06:17:59.685Z,190
2018-05-17T06:19:09.316Z,200
2018-05-17T06:20:19.550Z,210
2018-05-17T06:21:30.734Z,215
2018-05-17T06:22:40.916Z,225
2018-05-17T06:23:51.284Z,225
2018-05-17T06:25:01.577Z,225
2018-05-17T06:26:11.741Z,230
2018-05-17T06:27:21.918Z,235
2018-05-17T06:28:31.184Z,245
2018-05-17T06:29:41.327Z,255
2018-05-17T06:30:52.492Z,270
2018-05-17T06:32:02.616Z,275
2018-05-17T06:33:12.741Z,275
2018-05-17T06:34:22.868Z,270
2018-05-17T06:35:32.979Z,280
2018-05-17T06:36:43.215Z,290
2018-05-17T06:37:53.508Z,290
2018-05-17T06:39:03.672Z,285
2018-05-17T06:40:13.876Z,290
2018-05-17T06:41:24.144Z,300
2018-05-17T06:42:34.352Z,310
2018-05-17T06:43:44.591Z,310
2018-05-17T06:44:54.716Z,310
2018-05-17T06:46:04.962Z,315
2018-05-17T06:47:15.191Z,320
2018-05-17T06:48:25.415Z,325
2018-05-17T06:49:35.625Z,325
2018-05-17T06:50:45.851Z,330
2018-05-17T06:51:56.391Z,330
2018-05-17T06:53:06.540Z,335
2018-05-17T06:54:16.435Z,355
2018-05-17T06:55:26.448Z,345
2018-05-17T06:56:36.043Z,355
2018-05-17T06:57:46.264Z,365
2018-05-17T06:58:56.440Z,370
2018-05-17T07:00:06.674Z,380
2018-05-17T07:01:17.324Z,380
2018-05-17T07:02:27.550Z,395
2018-05-17T07:03:37.431Z,400
2018-05-17T07:04:47.579Z,400
2018-05-17T07:05:57.829Z,405
2018-05-17T07:07:08.199Z,410
2018-05-17T07:08:18.338Z,415
2018-05-17T07:09:28.096Z,415
2018-05-17T07:10:38.381Z,420
2018-05-17T07:11:48.583Z,425
2018-05-17T07:12:58.760Z,425
2018-05-17T07:14:08.653Z,440
2018-05-17T07:15:18.608Z,440
2018-05-17T07:16:28.773Z,440
2018-05-17T07:17:38.956Z,445
2018-05-17T07:18:51.146Z,455
2018-05-17T07:20:01.394Z,460
2018-05-17T07:21:11.719Z,475
2018-05-17T07:22:21.980Z,485
2018-05-17T07:23:32.157Z,480
2018-05-17T07:24:42.325Z,480
2018-05-17T07:25:52.719Z,475
2018-05-17T07:27:02.891Z,480
2018-05-17T07:28:13.045Z,490
2018-05-17T07:29:23.196Z,510
2018-05-17T07:30:33.436Z,520
2018-05-17T07:31:43.342Z,495
2018-05-17T07:32:53.474Z,485
2018-05-17T07:34:03.394Z,485
2018-05-17T07:35:13.551Z,460
2018-05-17T07:36:23.692Z,480
2018-05-17T07:37:33.879Z,480
2018-05-17T07:38:44.028Z,470
2018-05-17T07:39:54.305Z,475
2018-05-17T07:41:04.534Z,475
2018-05-17T07:42:14.727Z,480
2018-05-17T07:43:24.876Z,485
2018-05-17T07:44:34.668Z,510
2018-05-17T07:45:44.885Z,505
2018-05-17T07:46:55.010Z,515
2018-05-17T07:48:05.249Z,515
2018-05-17T07:49:15.493Z,495
2018-05-17T07:50:25.385Z,525
2018-05-17T07:51:35.582Z,490
2018-05-17T07:52:45.739Z,505
2018-05-17T07:53:55.643Z,505
2018-05-17T07:55:05.793Z,500
2018-05-17T07:56:15.944Z,500
2018-05-17T07:57:26.093Z,485
2018-05-17T07:58:35.962Z,460
2018-05-17T07:59:46.109Z,440
2018-05-17T08:00:56.353Z,485
2018-05-17T08:02:06.592Z,475
2018-05-17T08:03:16.517Z,445
2018-05-17T08:04:26.663Z,465
2018-05-17T08:05:36.834Z,455
2018-05-17T08:06:46.975Z,460
2018-05-17T08:07:57.141Z,455
2018-05-17T08:09:07.134Z,470
2018-05-17T08:10:17.258Z,480
2018-05-17T08:11:27.447Z,490
2018-05-17T08:12:37.572Z,540
2018-05-17T08:13:47.751Z,540
2018-05-17T08:14:58.024Z,560
2018-05-17T08:16:08.246Z,540
2018-05-17T08:17:18.463Z,515
2018-05-17T08:18:28.690Z,520
2018-05-17T08:19:38.909Z,490
2018-05-17T08:20:49.116Z,495
2018-05-17T08:21:59.053Z,490
2018-05-17T08:23:09.241Z,510
2018-05-17T08:24:19.107Z,570
2018-05-17T08:25:29.247Z,600
2018-05-17T08:26:39.396Z,620
2018-05-17T08:27:49.527Z,610
2018-05-17T08:29:00.009Z,705
2018-05-17T08:30:10.182Z,1105
2018-05-17T08:31:20.357Z,1285
2018-05-17T08:32:30.494Z,1425
2018-05-17T08:33:40.659Z,1495
2018-05-17T08:34:50.841Z,1610
2018-05-17T08:36:01.128Z,1665
2018-05-17T08:37:11.330Z,1750
2018-05-17T08:38:21.470Z,1845
2018-05-17T08:39:31.611Z,1850
2018-05-17T08:40:41.910Z,1825
2018-05-17T08:41:51.967Z,1770
2018-05-17T08:43:02.428Z,1325
2018-05-17T08:44:12.314Z,1640
2018-05-17T08:45:22.503Z,1030
2018-05-17T08:46:32.409Z,590
2018-05-17T08:47:42.620Z,1025
2018-05-17T08:48:52.564Z,1755
2018-05-17T08:50:02.727Z,1495
2018-05-17T08:51:12.939Z,1905
2018-05-17T08:52:23.098Z,1420
2018-05-17T08:53:33.258Z,2230
2018-05-17T08:54:43.417Z,2515
2018-05-17T08:55:53.578Z,1230
2018-05-17T08:57:03.452Z,2530
2018-05-17T08:58:13.403Z,1665
2018-05-17T08:59:23.548Z,2340
2018-05-17T09:00:33.709Z,2155
2018-05-17T09:01:43.910Z,2065
2018-05-17T09:02:54.221Z,1970
2018-05-17T09:04:04.438Z,1960
2018-05-17T09:05:14.687Z,1880
2018-05-17T09:06:24.846Z,1885
2018-05-17T09:07:35.050Z,1865
2018-05-17T09:08:45.218Z,1575
2018-05-17T09:09:55.013Z,1380
2018-05-17T09:11:05.269Z,1820
2018-05-17T09:12:15.171Z,1905
2018-05-17T09:13:25.409Z,1960
2018-05-17T09:14:35.585Z,1985
2018-05-17T09:15:45.723Z,1915
2018-05-17T09:16:55.877Z,1945
2018-05-17T09:18:06.097Z,1930
2018-05-17T09:19:16.310Z,1910
2018-05-17T09:20:26.621Z,1975
2018-05-17T09:21:36.807Z,2035
2018-05-17T09:22:46.702Z,2075
2018-05-17T09:23:56.844Z,2040
2018-05-17T09:25:07.003Z,2075
2018-05-17T09:26:16.909Z,2080
2018-05-17T09:27:27.056Z,2030
2018-05-17T09:28:36.954Z,2035
2018-05-17T09:29:47.335Z,2050
2018-05-17T09:30:57.489Z,2125
2018-05-17T09:32:07.691Z,2230
2018-05-17T09:33:17.955Z,2115
2018-05-17T09:34:28.177Z,2075
2018-05-17T09:35:38.555Z,2245
2018-05-17T09:36:48.434Z,2240
2018-05-17T09:38:00.443Z,2250
2018-05-17T09:39:10.624Z,2215
2018-05-17T09:40:20.806Z,2255
2018-05-17T09:41:31.108Z,2230
2018-05-17T09:42:41.418Z,2125
2018-05-17T09:43:51.380Z,2065
2018-05-17T09:45:01.552Z,2045
2018-05-17T09:46:11.799Z,2025
2018-05-17T09:47:21.992Z,1985
2018-05-17T09:48:32.224Z,1840
2018-05-17T09:49:41.773Z,1530
2018-05-17T09:50:51.963Z,1635
2018-05-17T09:52:02.161Z,1735
2018-05-17T09:53:12.310Z,1860
2018-05-17T09:54:22.212Z,1960
2018-05-17T09:55:32.119Z,1755
2018-05-17T09:56:42.286Z,1605
2018-05-17T09:57:52.491Z,1635
2018-05-17T09:59:02.371Z,1515
2018-05-17T10:00:12.525Z,1655
2018-05-17T10:01:22.699Z,1575
2018-05-17T10:02:32.657Z,1565
2018-05-17T10:03:42.880Z,1645
2018-05-17T10:04:53.098Z,1685
2018-05-17T10:06:03.280Z,1840
2018-05-17T10:07:13.461Z,1800
2018-05-17T10:08:23.620Z,1730
2018-05-17T10:09:33.863Z,1515
2018-05-17T10:10:44.134Z,1530
2018-05-17T10:11:54.433Z,1700
2018-05-17T10:13:04.601Z,2100
2018-05-17T10:14:14.795Z,2050
2018-05-17T10:15:25.100Z,1935
2018-05-17T10:16:35.323Z,1740
2018-05-17T10:17:45.501Z,1825
2018-05-17T10:18:55.400Z,1810
2018-05-17T10:20:05.571Z,1710
2018-05-17T10:21:15.722Z,1760
2018-05-17T10:22:25.604Z,1720
2018-05-17T10:23:35.859Z,1790
2018-05-17T10:24:46.024Z,1815
2018-05-17T10:25:56.175Z,1745
2018-05-17T10:27:06.380Z,1750
2018-05-17T10:28:16.539Z,1745
2018-05-17T10:29:26.899Z,1890
2018-05-17T10:30:37.053Z,2015
2018-05-17T10:31:46.940Z,2090
2018-05-17T10:32:56.832Z,2185
2018-05-17T10:34:07.193Z,2295
2018-05-17T10:35:17.062Z,2345
2018-05-17T10:36:27.252Z,2425
2018-05-17T10:37:36.889Z,2345
2018-05-17T10:38:47.041Z,2440
2018-05-17T10:39:56.920Z,2470
2018-05-17T10:41:07.078Z,2500
2018-05-17T10:42:17.495Z,2490
2018-05-17T10:43:27.803Z,2540
2018-05-17T10:44:38.050Z,2535
2018-05-17T10:45:48.280Z,2585
2018-05-17T10:46:58.577Z,2530
2018-05-17T10:48:08.787Z,2460
2018-05-17T10:49:19.084Z,2610
2018-05-17T10:50:29.264Z,2585
2018-05-17T10:51:39.486Z,2560
2018-05-17T10:52:49.704Z,2555
2018-05-17T10:53:59.885Z,2555
2018-05-17T10:55:10.127Z,2485
2018-05-17T10:56:20.295Z,2425
2018-05-17T10:57:30.454Z,2475
2018-05-17T10:58:40.666Z,2365
2018-05-17T10:59:50.812Z,2490
2018-05-17T11:01:00.971Z,2555
2018-05-17T11:02:11.113Z,2645
2018-05-17T11:03:21.256Z,2720
2018-05-17T11:04:31.411Z,2740
2018-05-17T11:05:41.622Z,2860
2018-05-17T11:06:51.826Z,2885
2018-05-17T11:08:02.032Z,2880
2018-05-17T11:09:12.004Z,2800
2018-05-17T11:10:21.891Z,2595
2018-05-17T11:11:32.093Z,2595
2018-05-17T11:12:42.304Z,2550
2018-05-17T11:13:53.182Z,2765
2018-05-17T11:15:03.478Z,2940
2018-05-17T11:16:13.654Z,3045
2018-05-17T11:17:23.841Z,2985
2018-05-17T11:18:34.063Z,2970
2018-05-17T11:19:44.340Z,2870
2018-05-17T11:20:53.745Z,2880
2018-05-17T11:22:03.650Z,2875
2018-05-17T11:23:13.985Z,2945
2018-05-17T11:24:24.191Z,2955
2018-05-17T11:25:35.033Z,3070
2018-05-17T11:26:44.928Z,3095
2018-05-17T11:27:55.086Z,3150
2018-05-17T11:29:06.221Z,3065
2018-05-17T11:30:15.877Z,3010
2018-05-17T11:31:26.041Z,2880
2018-05-17T11:32:36.024Z,2885
2018-05-17T11:33:46.188Z,2915
2018-05-17T11:34:56.361Z,2880
2018-05-17T11:36:07.499Z,2890
2018-05-17T11:37:17.668Z,2920
2018-05-17T11:38:28.038Z,2980
2018-05-17T11:39:38.290Z,2915
2018-05-17T11:40:49.420Z,2760
2018-05-17T11:41:59.500Z,2605
2018-05-17T11:43:09.440Z,2540
2018-05-17T11:44:20.025Z,2615
2018-05-17T11:45:30.201Z,2615
2018-05-17T11:46:40.420Z,2590
2018-05-17T11:47:50.695Z,2590
2018-05-17T11:49:00.862Z,2595
2018-05-17T11:50:11.181Z,2550
2018-05-17T11:51:21.396Z,2540
2018-05-17T11:52:31.629Z,2440
2018-05-17T11:53:41.815Z,2600
2018-05-17T11:54:51.722Z,2630
2018-05-17T11:56:02.161Z,2455
2018-05-17T11:57:12.057Z,2290
2018-05-17T11:58:22.225Z,2490
2018-05-17T11:59:32.417Z,2500
2018-05-17T12:00:42.644Z,2575
2018-05-17T12:01:52.942Z,2645
2018-05-17T12:03:03.096Z,2760
2018-05-17T12:04:13.300Z,2810
2018-05-17T12:05:22.986Z,2815
2018-05-17T12:06:33.248Z,2765
2018-05-17T12:07:43.872Z,2720
2018-05-17T12:08:54.037Z,2660
2018-05-17T12:10:04.410Z,2570
2018-05-17T12:11:14.335Z,2540
2018-05-17T12:12:24.469Z,2490
2018-05-17T12:13:34.643Z,2465
2018-05-17T12:14:44.808Z,2515
2018-05-17T12:15:54.992Z,2605
2018-05-17T12:17:05.013Z,2730
2018-05-17T12:18:15.191Z,2795
2018-05-17T12:19:25.360Z,2815
2018-05-17T12:20:35.537Z,2815
2018-05-17T12:21:45.723Z,2725
2018-05-17T12:22:55.691Z,2695
2018-05-17T12:24:05.998Z,2665
2018-05-17T12:25:16.212Z,2685
2018-05-17T12:26:26.456Z,2675
2018-05-17T12:27:36.727Z,2720
2018-05-17T12:28:46.864Z,2730
2018-05-17T12:29:56.382Z,2740
2018-05-17T12:31:06.579Z,2740
2018-05-17T12:32:16.780Z,2665
2018-05-17T12:33:26.936Z,2595
2018-05-17T12:34:36.835Z,2520
2018-05-17T12:35:47.017Z,2485
2018-05-17T12:36:57.184Z,2505
2018-05-17T12:38:07.366Z,2645
2018-05-17T12:39:17.537Z,2710
2018-05-17T12:40:27.699Z,2740
2018-05-17T12:41:37.879Z,2655
2018-05-17T12:42:47.966Z,2580
2018-05-17T12:43:57.915Z,2555
2018-05-17T12:45:08.120Z,2585
2018-05-17T12:46:18.802Z,2645
2018-05-17T12:47:29.126Z,2665
2018-05-17T12:48:39.357Z,2695
2018-05-17T12:49:49.546Z,2705
2018-05-17T12:51:00.181Z,2635
2018-05-17T12:52:10.385Z,2520
2018-05-17T12:53:20.532Z,2440
2018-05-17T12:54:30.705Z,2490
2018-05-17T12:55:40.937Z,2475
2018-05-17T12:56:51.420Z,2545
2018-05-17T12:58:01.580Z,2610
2018-05-17T12:59:11.800Z,2630
2018-05-17T13:00:22.936Z,2555
2018-05-17T13:01:33.101Z,2450
2018-05-17T13:02:43.432Z,2370
2018-05-17T13:03:53.637Z,2375
2018-05-17T13:05:03.558Z,2400
2018-05-17T13:06:13.759Z,2440
2018-05-17T13:07:23.693Z,2460
2018-05-17T13:08:34.073Z,2460
2018-05-17T13:09:44.233Z,2490
2018-05-17T13:10:54.403Z,2535
2018-05-17T13:12:04.625Z,2520
2018-05-17T13:13:15.025Z,2435
2018-05-17T13:14:25.270Z,2365
2018-05-17T13:15:35.436Z,2275
2018-05-17T13:16:45.628Z,2230
2018-05-17T13:17:56.794Z,2165
2018-05-17T13:19:06.800Z,2110
2018-05-17T13:20:16.966Z,2150
2018-05-17T13:21:26.617Z,2075
2018-05-17T13:22:36.591Z,2030
2018-05-17T13:23:46.838Z,1995
2018-05-17T13:24:57.433Z,1925
2018-05-17T13:26:07.816Z,1985
2018-05-17T13:27:18.033Z,2005
2018-05-17T13:28:28.255Z,2015
2018-05-17T13:29:38.430Z,2025
2018-05-17T13:30:48.607Z,2050
2018-05-17T13:31:58.839Z,2070
2018-05-17T13:33:09.024Z,2075
2018-05-17T13:34:19.240Z,2055
2018-05-17T13:35:29.122Z,1990
2018-05-17T13:36:39.393Z,1910
2018-05-17T13:37:49.302Z,1790
2018-05-17T13:38:59.479Z,1760
2018-05-17T13:40:09.652Z,1750
2018-05-17T13:41:19.873Z,1825
2018-05-17T13:42:30.053Z,1870
2018-05-17T13:43:40.242Z,1910
2018-05-17T13:44:50.392Z,1950
2018-05-17T13:46:00.562Z,1960
2018-05-17T13:47:11.848Z,1910
2018-05-17T13:48:21.737Z,1825
2018-05-17T13:49:31.541Z,1710
2018-05-17T13:50:41.692Z,1645
2018-05-17T13:51:51.871Z,1625
2018-05-17T13:53:01.993Z,1650
2018-05-17T13:54:12.176Z,1695
2018-05-17T13:55:22.396Z,1740
2018-05-17T13:56:32.637Z,1805
2018-05-17T13:57:42.796Z,1790
2018-05-17T13:58:52.995Z,1730
2018-05-17T14:00:03.183Z,1705
2018-05-17T14:01:13.122Z,1740
2018-05-17T14:02:23.712Z,1795
2018-05-17T14:03:33.734Z,1850
2018-05-17T14:04:44.003Z,1840
2018-05-17T14:05:54.181Z,1795
2018-05-17T14:07:04.111Z,1790
2018-05-17T14:08:14.327Z,1835
2018-05-17T14:09:24.480Z,1865
2018-05-17T14:10:34.663Z,1910
2018-05-17T14:11:45.037Z,1855
2018-05-17T14:12:55.317Z,1770
2018-05-17T14:14:05.537Z,1735
2018-05-17T14:15:16.291Z,1700
2018-05-17T14:16:26.523Z,1715
2018-05-17T14:17:36.727Z,1680
2018-05-17T14:18:46.911Z,1705
2018-05-17T14:19:57.107Z,1730
2018-05-17T14:21:07.394Z,1735
2018-05-17T14:22:17.651Z,1695
2018-05-17T14:23:27.809Z,1675
2018-05-17T14:24:37.727Z,1730
2018-05-17T14:25:47.907Z,1795
2018-05-17T14:26:58.091Z,1800
2018-05-17T14:28:08.263Z,1745
2018-05-17T14:29:18.428Z,1635
2018-05-17T14:30:28.623Z,1610
2018-05-17T14:31:38.951Z,1640
2018-05-17T14:32:48.863Z,1650
2018-05-17T14:33:58.805Z,1675
2018-05-17T14:35:08.989Z,1660
2018-05-17T14:36:19.167Z,1615
2018-05-17T14:37:29.150Z,1645
2018-05-17T14:38:39.416Z,1690
2018-05-17T14:39:49.583Z,1705
2018-05-17T14:40:59.581Z,1700
2018-05-17T14:42:09.828Z,1725
2018-05-17T14:43:20.057Z,1770
2018-05-17T14:44:30.099Z,1745
2018-05-17T14:45:40.304Z,1650
2018-05-17T14:46:50.525Z,1550
2018-05-17T14:48:01.702Z,1530
2018-05-17T14:49:11.599Z,1525
2018-05-17T14:50:21.783Z,1540
2018-05-17T14:51:32.113Z,1530
2018-05-17T14:52:43.245Z,1510
2018-05-17T14:53:53.416Z,1495
2018-05-17T14:55:04.892Z,1500
2018-05-17T14:56:15.063Z,1490
2018-05-17T14:57:25.230Z,1460
2018-05-17T14:58:35.140Z,1415
2018-05-17T14:59:45.294Z,1345
2018-05-17T15:00:55.540Z,1345
2018-05-17T15:02:05.607Z,1430
2018-05-17T15:03:15.810Z,1480
2018-05-17T15:04:26.008Z,1430
2018-05-17T15:05:36.303Z,1470
2018-05-17T15:06:46.499Z,1415
2018-05-17T15:07:56.815Z,1370
2018-05-17T15:09:06.989Z,1335
2018-05-17T15:10:17.161Z,1270
2018-05-17T15:11:27.464Z,1215
2018-05-17T15:12:37.758Z,1190
2018-05-17T15:13:47.906Z,860
2018-05-17T15:14:58.090Z,565
2018-05-17T15:16:08.259Z,515
2018-05-17T15:17:18.528Z,490
2018-05-17T15:18:28.688Z,465
2018-05-17T15:19:39.887Z,455
2018-05-17T15:20:50.214Z,440
2018-05-17T15:22:00.399Z,425
2018-05-17T15:23:10.554Z,420
2018-05-17T15:24:20.408Z,415
2018-05-17T15:25:30.313Z,400
2018-05-17T15:26:40.504Z,395
2018-05-17T15:27:50.837Z,385
2018-05-17T15:29:01.090Z,385
2018-05-17T15:30:11.395Z,380
2018-05-17T15:31:21.647Z,370
2018-05-17T15:32:31.834Z,370
2018-05-17T15:33:42.032Z,360
2018-05-17T15:34:52.277Z,360
2018-05-17T15:36:02.210Z,350
2018-05-17T15:37:12.372Z,345
2018-05-17T15:38:22.533Z,340
2018-05-17T15:39:32.713Z,335
2018-05-17T15:40:42.904Z,335
2018-05-17T15:41:53.315Z,330
2018-05-17T15:43:03.462Z,330
2018-05-17T15:44:13.714Z,325
2018-05-17T15:45:23.969Z,320
2018-05-17T15:46:33.793Z,325
2018-05-17T15:47:44.029Z,315
2018-05-17T15:48:54.312Z,310
2018-05-17T15:50:04.590Z,305
2018-05-17T15:51:14.841Z,300
2018-05-17T15:52:25.034Z,295
2018-05-17T15:53:35.488Z,290
2018-05-17T15:54:45.660Z,290
2018-05-17T15:55:55.951Z,290
2018-05-17T15:57:06.110Z,285
2018-05-17T15:58:16.267Z,285
2018-05-17T15:59:26.481Z,280
2018-05-17T16:00:36.668Z,275
2018-05-17T16:01:46.858Z,275
2018-05-17T16:02:57.093Z,270
2018-05-17T16:04:07.268Z,265
2018-05-17T16:05:17.213Z,260
2018-05-17T16:06:27.408Z,255
2018-05-17T16:07:37.588Z,250
2018-05-17T16:08:47.852Z,250
2018-05-17T16:09:58.045Z,245